sensor_id;sensor_type;location;lat;lon;timestamp;P1;durP1;ratioP1;P2;durP2;ratioP2
57720;SDS011;43562;43.064;0.160;2022-08-21T00:01:02;4.70;;;2.58;;
57720;SDS011;43562;43.064;0.160;2022-08-21T00:03:29;4.10;;;2.70;;
57720;SDS011;43562;43.064;0.160;2022-08-21T00:05:55;3.38;;;2.65;;
57720;SDS011;43562;43.064;0.160;2022-08-21T00:08:21;3.08;;;2.40;;
57720;SDS011;43562;43.064;0.160;2022-08-21T00:10:47;3.20;;;2.33;;
57720;SDS011;43562;43.064;0.160;2022-08-21T00:13:14;5.35;;;2.70;;
57720;SDS011;43562;43.064;0.160;2022-08-21T00:15:40;2.63;;;2.35;;
57720;SDS011;43562;43.064;0.160;2022-08-21T00:18:08;3.25;;;2.40;;
57720;SDS011;43562;43.064;0.160;2022-08-21T00:20:35;3.55;;;2.50;;
57720;SDS011;43562;43.064;0.160;2022-08-21T00:23:02;2.85;;;2.60;;
57720;SDS011;43562;43.064;0.160;2022-08-21T00:25:29;3.65;;;2.72;;
57720;SDS011;43562;43.064;0.160;2022-08-21T00:27:55;3.08;;;2.38;;
57720;SDS011;43562;43.064;0.160;2022-08-21T00:30:22;2.92;;;2.40;;
57720;SDS011;43562;43.064;0.160;2022-08-21T00:32:48;3.22;;;2.30;;
57720;SDS011;43562;43.064;0.160;2022-08-21T00:35:15;2.80;;;2.40;;
57720;SDS011;43562;43.064;0.160;2022-08-21T00:37:42;4.80;;;2.28;;
57720;SDS011;43562;43.064;0.160;2022-08-21T00:40:10;2.40;;;2.20;;
57720;SDS011;43562;43.064;0.160;2022-08-21T00:42:37;3.35;;;2.25;;
57720;SDS011;43562;43.064;0.160;2022-08-21T00:45:03;3.92;;;2.78;;
57720;SDS011;43562;43.064;0.160;2022-08-21T00:47:29;6.63;;;2.15;;
57720;SDS011;43562;43.064;0.160;2022-08-21T00:49:55;4.18;;;3.13;;
57720;SDS011;43562;43.064;0.160;2022-08-21T00:52:22;2.50;;;2.30;;
57720;SDS011;43562;43.064;0.160;2022-08-21T00:54:50;4.15;;;2.72;;
57720;SDS011;43562;43.064;0.160;2022-08-21T00:57:21;3.72;;;3.00;;
57720;SDS011;43562;43.064;0.160;2022-08-21T00:59:49;3.88;;;2.70;;
57720;SDS011;43562;43.064;0.160;2022-08-21T01:02:17;5.72;;;2.45;;
57720;SDS011;43562;43.064;0.160;2022-08-21T01:04:43;2.90;;;2.55;;
57720;SDS011;43562;43.064;0.160;2022-08-21T01:07:10;3.05;;;2.33;;
57720;SDS011;43562;43.064;0.160;2022-08-21T01:09:36;2.65;;;2.42;;
57720;SDS011;43562;43.064;0.160;2022-08-21T01:12:03;4.40;;;2.38;;
57720;SDS011;43562;43.064;0.160;2022-08-21T01:14:29;3.75;;;2.55;;
57720;SDS011;43562;43.064;0.160;2022-08-21T01:16:56;2.95;;;2.30;;
57720;SDS011;43562;43.064;0.160;2022-08-21T01:19:22;5.85;;;2.40;;
57720;SDS011;43562;43.064;0.160;2022-08-21T01:21:49;3.85;;;2.72;;
57720;SDS011;43562;43.064;0.160;2022-08-21T01:24:15;5.90;;;2.50;;
57720;SDS011;43562;43.064;0.160;2022-08-21T01:26:42;2.88;;;2.63;;
57720;SDS011;43562;43.064;0.160;2022-08-21T01:31:35;3.28;;;2.58;;
57720;SDS011;43562;43.064;0.160;2022-08-21T01:34:02;3.33;;;2.88;;
57720;SDS011;43562;43.064;0.160;2022-08-21T01:36:28;4.22;;;2.20;;
57720;SDS011;43562;43.064;0.160;2022-08-21T01:38:54;5.20;;;2.35;;
57720;SDS011;43562;43.064;0.160;2022-08-21T01:41:21;3.72;;;2.45;;
57720;SDS011;43562;43.064;0.160;2022-08-21T01:43:47;2.78;;;2.30;;
57720;SDS011;43562;43.064;0.160;2022-08-21T01:46:13;2.63;;;2.42;;
57720;SDS011;43562;43.064;0.160;2022-08-21T01:48:40;2.70;;;2.40;;
57720;SDS011;43562;43.064;0.160;2022-08-21T01:51:06;2.45;;;2.00;;
57720;SDS011;43562;43.064;0.160;2022-08-21T01:53:33;2.85;;;1.98;;
57720;SDS011;43562;43.064;0.160;2022-08-21T01:56:01;2.65;;;2.22;;
57720;SDS011;43562;43.064;0.160;2022-08-21T01:58:27;3.50;;;2.70;;
57720;SDS011;43562;43.064;0.160;2022-08-21T02:00:53;3.67;;;2.42;;
57720;SDS011;43562;43.064;0.160;2022-08-21T02:03:19;3.88;;;2.30;;
57720;SDS011;43562;43.064;0.160;2022-08-21T02:05:45;3.25;;;2.47;;
57720;SDS011;43562;43.064;0.160;2022-08-21T02:08:11;4.30;;;2.30;;
57720;SDS011;43562;43.064;0.160;2022-08-21T02:10:37;5.38;;;2.53;;
57720;SDS011;43562;43.064;0.160;2022-08-21T02:13:05;3.00;;;2.35;;
57720;SDS011;43562;43.064;0.160;2022-08-21T02:15:32;2.67;;;2.30;;
57720;SDS011;43562;43.064;0.160;2022-08-21T02:17:59;2.78;;;2.50;;
57720;SDS011;43562;43.064;0.160;2022-08-21T02:20:33;3.25;;;2.08;;
57720;SDS011;43562;43.064;0.160;2022-08-21T02:23:00;3.33;;;2.40;;
57720;SDS011;43562;43.064;0.160;2022-08-21T02:25:26;3.70;;;2.30;;
57720;SDS011;43562;43.064;0.160;2022-08-21T02:27:53;3.50;;;2.28;;
57720;SDS011;43562;43.064;0.160;2022-08-21T02:30:21;2.75;;;2.25;;
57720;SDS011;43562;43.064;0.160;2022-08-21T02:32:48;3.28;;;2.65;;
57720;SDS011;43562;43.064;0.160;2022-08-21T02:35:14;2.88;;;2.30;;
57720;SDS011;43562;43.064;0.160;2022-08-21T02:38:14;2.30;;;1.98;;
57720;SDS011;43562;43.064;0.160;2022-08-21T02:40:33;2.33;;;2.10;;
57720;SDS011;43562;43.064;0.160;2022-08-21T02:43:00;4.22;;;2.30;;
57720;SDS011;43562;43.064;0.160;2022-08-21T02:45:27;4.90;;;2.63;;
57720;SDS011;43562;43.064;0.160;2022-08-21T02:47:54;4.88;;;2.22;;
57720;SDS011;43562;43.064;0.160;2022-08-21T02:50:22;4.18;;;2.55;;
57720;SDS011;43562;43.064;0.160;2022-08-21T02:52:48;2.45;;;2.10;;
57720;SDS011;43562;43.064;0.160;2022-08-21T02:55:16;2.72;;;2.25;;
57720;SDS011;43562;43.064;0.160;2022-08-21T02:57:42;2.22;;;2.00;;
57720;SDS011;43562;43.064;0.160;2022-08-21T03:00:08;2.22;;;2.00;;
57720;SDS011;43562;43.064;0.160;2022-08-21T03:02:36;2.95;;;2.20;;
57720;SDS011;43562;43.064;0.160;2022-08-21T03:05:03;3.17;;;2.35;;
57720;SDS011;43562;43.064;0.160;2022-08-21T03:07:29;2.50;;;2.30;;
57720;SDS011;43562;43.064;0.160;2022-08-21T03:09:55;2.88;;;2.42;;
57720;SDS011;43562;43.064;0.160;2022-08-21T03:12:21;3.53;;;2.25;;
57720;SDS011;43562;43.064;0.160;2022-08-21T03:14:47;4.35;;;2.40;;
57720;SDS011;43562;43.064;0.160;2022-08-21T03:17:14;2.42;;;2.20;;
57720;SDS011;43562;43.064;0.160;2022-08-21T03:19:40;4.07;;;2.00;;
57720;SDS011;43562;43.064;0.160;2022-08-21T03:22:06;3.38;;;2.30;;
57720;SDS011;43562;43.064;0.160;2022-08-21T03:24:32;4.60;;;2.10;;
57720;SDS011;43562;43.064;0.160;2022-08-21T03:26:58;3.95;;;2.22;;
57720;SDS011;43562;43.064;0.160;2022-08-21T03:29:25;3.28;;;2.10;;
57720;SDS011;43562;43.064;0.160;2022-08-21T03:31:51;4.00;;;2.63;;
57720;SDS011;43562;43.064;0.160;2022-08-21T03:34:19;3.30;;;2.22;;
57720;SDS011;43562;43.064;0.160;2022-08-21T03:36:46;3.80;;;2.35;;
57720;SDS011;43562;43.064;0.160;2022-08-21T03:39:12;2.63;;;2.15;;
57720;SDS011;43562;43.064;0.160;2022-08-21T03:41:38;3.22;;;2.50;;
57720;SDS011;43562;43.064;0.160;2022-08-21T03:44:04;3.17;;;2.47;;
57720;SDS011;43562;43.064;0.160;2022-08-21T03:46:30;2.50;;;2.30;;
57720;SDS011;43562;43.064;0.160;2022-08-21T03:48:56;2.67;;;2.20;;
57720;SDS011;43562;43.064;0.160;2022-08-21T03:51:22;3.03;;;2.42;;
57720;SDS011;43562;43.064;0.160;2022-08-21T03:53:49;3.13;;;2.60;;
57720;SDS011;43562;43.064;0.160;2022-08-21T03:56:15;2.67;;;2.38;;
57720;SDS011;43562;43.064;0.160;2022-08-21T03:58:41;3.20;;;2.35;;
57720;SDS011;43562;43.064;0.160;2022-08-21T04:01:07;2.60;;;2.33;;
57720;SDS011;43562;43.064;0.160;2022-08-21T04:03:34;2.58;;;1.65;;
57720;SDS011;43562;43.064;0.160;2022-08-21T04:06:00;3.90;;;2.00;;
57720;SDS011;43562;43.064;0.160;2022-08-21T04:08:26;4.43;;;2.17;;
57720;SDS011;43562;43.064;0.160;2022-08-21T04:10:53;4.80;;;2.30;;
57720;SDS011;43562;43.064;0.160;2022-08-21T04:13:21;2.13;;;1.92;;
57720;SDS011;43562;43.064;0.160;2022-08-21T04:15:47;2.50;;;1.98;;
57720;SDS011;43562;43.064;0.160;2022-08-21T04:18:14;2.30;;;1.92;;
57720;SDS011;43562;43.064;0.160;2022-08-21T04:20:40;2.90;;;2.08;;
57720;SDS011;43562;43.064;0.160;2022-08-21T04:23:07;2.10;;;1.90;;
57720;SDS011;43562;43.064;0.160;2022-08-21T04:25:33;5.40;;;2.42;;
57720;SDS011;43562;43.064;0.160;2022-08-21T04:28:00;2.70;;;2.00;;
57720;SDS011;43562;43.064;0.160;2022-08-21T04:30:27;2.35;;;2.03;;
57720;SDS011;43562;43.064;0.160;2022-08-21T04:32:53;3.22;;;2.03;;
57720;SDS011;43562;43.064;0.160;2022-08-21T04:35:20;2.55;;;2.25;;
57720;SDS011;43562;43.064;0.160;2022-08-21T04:37:46;2.17;;;1.98;;
57720;SDS011;43562;43.064;0.160;2022-08-21T04:40:13;2.50;;;2.30;;
57720;SDS011;43562;43.064;0.160;2022-08-21T04:42:44;3.67;;;2.53;;
57720;SDS011;43562;43.064;0.160;2022-08-21T04:48:03;2.65;;;2.00;;
57720;SDS011;43562;43.064;0.160;2022-08-21T04:50:47;3.20;;;2.25;;
57720;SDS011;43562;43.064;0.160;2022-08-21T04:55:46;3.42;;;2.33;;
57720;SDS011;43562;43.064;0.160;2022-08-21T04:58:13;2.40;;;2.10;;
57720;SDS011;43562;43.064;0.160;2022-08-21T05:00:40;2.35;;;2.00;;
57720;SDS011;43562;43.064;0.160;2022-08-21T05:03:06;2.70;;;2.00;;
57720;SDS011;43562;43.064;0.160;2022-08-21T05:05:33;4.30;;;2.10;;
57720;SDS011;43562;43.064;0.160;2022-08-21T05:08:00;2.42;;;2.10;;
57720;SDS011;43562;43.064;0.160;2022-08-21T05:10:27;5.15;;;1.90;;
57720;SDS011;43562;43.064;0.160;2022-08-21T05:12:53;2.30;;;1.80;;
57720;SDS011;43562;43.064;0.160;2022-08-21T05:15:19;2.50;;;2.13;;
57720;SDS011;43562;43.064;0.160;2022-08-21T05:17:46;2.35;;;2.15;;
57720;SDS011;43562;43.064;0.160;2022-08-21T05:20:13;5.50;;;2.20;;
57720;SDS011;43562;43.064;0.160;2022-08-21T05:22:39;2.28;;;2.05;;
57720;SDS011;43562;43.064;0.160;2022-08-21T05:25:07;2.70;;;2.33;;
57720;SDS011;43562;43.064;0.160;2022-08-21T05:27:33;3.47;;;2.17;;
57720;SDS011;43562;43.064;0.160;2022-08-21T05:29:59;2.60;;;2.10;;
57720;SDS011;43562;43.064;0.160;2022-08-21T05:32:25;4.20;;;2.08;;
57720;SDS011;43562;43.064;0.160;2022-08-21T05:34:53;2.45;;;2.22;;
57720;SDS011;43562;43.064;0.160;2022-08-21T05:37:19;4.55;;;2.47;;
57720;SDS011;43562;43.064;0.160;2022-08-21T05:39:46;2.90;;;2.05;;
57720;SDS011;43562;43.064;0.160;2022-08-21T05:42:12;3.33;;;2.00;;
57720;SDS011;43562;43.064;0.160;2022-08-21T05:44:38;2.33;;;2.00;;
57720;SDS011;43562;43.064;0.160;2022-08-21T05:47:07;2.47;;;2.13;;
57720;SDS011;43562;43.064;0.160;2022-08-21T05:49:34;3.08;;;2.28;;
57720;SDS011;43562;43.064;0.160;2022-08-21T05:52:01;2.05;;;1.88;;
57720;SDS011;43562;43.064;0.160;2022-08-21T05:54:27;2.67;;;2.30;;
57720;SDS011;43562;43.064;0.160;2022-08-21T05:56:53;2.70;;;2.13;;
57720;SDS011;43562;43.064;0.160;2022-08-21T05:59:19;2.75;;;2.38;;
57720;SDS011;43562;43.064;0.160;2022-08-21T06:01:46;8.88;;;2.47;;
57720;SDS011;43562;43.064;0.160;2022-08-21T06:04:12;2.58;;;2.30;;
57720;SDS011;43562;43.064;0.160;2022-08-21T06:06:38;2.60;;;1.77;;
57720;SDS011;43562;43.064;0.160;2022-08-21T06:09:05;4.88;;;1.95;;
57720;SDS011;43562;43.064;0.160;2022-08-21T06:11:31;4.40;;;3.03;;
57720;SDS011;43562;43.064;0.160;2022-08-21T06:13:58;2.92;;;2.70;;
57720;SDS011;43562;43.064;0.160;2022-08-21T06:16:24;3.47;;;2.60;;
57720;SDS011;43562;43.064;0.160;2022-08-21T06:18:51;2.15;;;1.88;;
57720;SDS011;43562;43.064;0.160;2022-08-21T06:21:17;2.17;;;1.90;;
57720;SDS011;43562;43.064;0.160;2022-08-21T06:23:43;2.40;;;1.80;;
57720;SDS011;43562;43.064;0.160;2022-08-21T06:26:11;2.70;;;2.15;;
57720;SDS011;43562;43.064;0.160;2022-08-21T06:28:37;3.30;;;2.50;;
57720;SDS011;43562;43.064;0.160;2022-08-21T06:31:13;2.42;;;2.22;;
57720;SDS011;43562;43.064;0.160;2022-08-21T06:33:40;6.22;;;2.85;;
57720;SDS011;43562;43.064;0.160;2022-08-21T06:36:06;2.63;;;2.25;;
57720;SDS011;43562;43.064;0.160;2022-08-21T06:38:32;2.30;;;2.05;;
57720;SDS011;43562;43.064;0.160;2022-08-21T06:40:59;4.72;;;3.05;;
57720;SDS011;43562;43.064;0.160;2022-08-21T06:43:25;3.53;;;2.75;;
57720;SDS011;43562;43.064;0.160;2022-08-21T06:45:51;2.60;;;2.47;;
57720;SDS011;43562;43.064;0.160;2022-08-21T06:48:17;4.63;;;2.88;;
57720;SDS011;43562;43.064;0.160;2022-08-21T06:50:44;3.38;;;2.78;;
57720;SDS011;43562;43.064;0.160;2022-08-21T06:53:10;2.97;;;2.63;;
57720;SDS011;43562;43.064;0.160;2022-08-21T06:55:37;2.53;;;2.33;;
57720;SDS011;43562;43.064;0.160;2022-08-21T06:58:04;2.55;;;2.35;;
57720;SDS011;43562;43.064;0.160;2022-08-21T07:00:31;2.40;;;2.05;;
57720;SDS011;43562;43.064;0.160;2022-08-21T07:02:57;2.75;;;1.80;;
57720;SDS011;43562;43.064;0.160;2022-08-21T07:05:28;3.47;;;2.00;;
57720;SDS011;43562;43.064;0.160;2022-08-21T07:07:54;2.63;;;2.00;;
57720;SDS011;43562;43.064;0.160;2022-08-21T07:10:21;1.67;;;1.50;;
57720;SDS011;43562;43.064;0.160;2022-08-21T07:12:48;2.40;;;2.20;;
57720;SDS011;43562;43.064;0.160;2022-08-21T07:15:14;2.70;;;2.50;;
57720;SDS011;43562;43.064;0.160;2022-08-21T07:17:40;2.60;;;2.40;;
57720;SDS011;43562;43.064;0.160;2022-08-21T07:20:06;3.35;;;2.78;;
57720;SDS011;43562;43.064;0.160;2022-08-21T07:22:32;2.47;;;2.28;;
57720;SDS011;43562;43.064;0.160;2022-08-21T07:24:59;2.75;;;2.33;;
57720;SDS011;43562;43.064;0.160;2022-08-21T07:27:25;2.95;;;2.40;;
57720;SDS011;43562;43.064;0.160;2022-08-21T07:29:52;2.50;;;2.30;;
57720;SDS011;43562;43.064;0.160;2022-08-21T07:32:18;3.13;;;2.88;;
57720;SDS011;43562;43.064;0.160;2022-08-21T07:34:44;5.60;;;2.80;;
57720;SDS011;43562;43.064;0.160;2022-08-21T07:37:10;2.67;;;2.47;;
57720;SDS011;43562;43.064;0.160;2022-08-21T07:39:36;4.40;;;2.60;;
57720;SDS011;43562;43.064;0.160;2022-08-21T07:42:02;2.92;;;2.72;;
57720;SDS011;43562;43.064;0.160;2022-08-21T07:44:28;2.65;;;2.38;;
57720;SDS011;43562;43.064;0.160;2022-08-21T07:46:54;4.28;;;2.30;;
57720;SDS011;43562;43.064;0.160;2022-08-21T07:49:21;3.75;;;2.40;;
57720;SDS011;43562;43.064;0.160;2022-08-21T07:51:47;3.33;;;2.25;;
57720;SDS011;43562;43.064;0.160;2022-08-21T07:54:13;2.40;;;2.20;;
57720;SDS011;43562;43.064;0.160;2022-08-21T07:56:39;2.42;;;2.22;;
57720;SDS011;43562;43.064;0.160;2022-08-21T07:59:05;2.85;;;2.55;;
57720;SDS011;43562;43.064;0.160;2022-08-21T08:01:31;2.38;;;2.17;;
57720;SDS011;43562;43.064;0.160;2022-08-21T08:03:57;2.60;;;2.40;;
57720;SDS011;43562;43.064;0.160;2022-08-21T08:06:23;2.28;;;2.08;;
57720;SDS011;43562;43.064;0.160;2022-08-21T08:08:51;4.28;;;2.30;;
57720;SDS011;43562;43.064;0.160;2022-08-21T08:11:17;5.03;;;3.38;;
57720;SDS011;43562;43.064;0.160;2022-08-21T08:13:45;4.38;;;2.53;;
57720;SDS011;43562;43.064;0.160;2022-08-21T08:16:11;2.15;;;2.00;;
57720;SDS011;43562;43.064;0.160;2022-08-21T08:18:37;2.38;;;2.00;;
57720;SDS011;43562;43.064;0.160;2022-08-21T08:21:03;2.67;;;2.30;;
57720;SDS011;43562;43.064;0.160;2022-08-21T08:23:30;2.95;;;2.08;;
57720;SDS011;43562;43.064;0.160;2022-08-21T08:25:57;1.98;;;1.88;;
57720;SDS011;43562;43.064;0.160;2022-08-21T08:28:23;2.45;;;2.25;;
57720;SDS011;43562;43.064;0.160;2022-08-21T08:30:50;2.20;;;2.00;;
57720;SDS011;43562;43.064;0.160;2022-08-21T08:33:17;3.72;;;1.98;;
57720;SDS011;43562;43.064;0.160;2022-08-21T08:35:44;2.88;;;2.40;;
57720;SDS011;43562;43.064;0.160;2022-08-21T08:38:11;2.97;;;2.15;;
57720;SDS011;43562;43.064;0.160;2022-08-21T08:40:45;3.22;;;2.30;;
57720;SDS011;43562;43.064;0.160;2022-08-21T08:43:13;3.33;;;2.47;;
57720;SDS011;43562;43.064;0.160;2022-08-21T08:45:40;2.67;;;2.40;;
57720;SDS011;43562;43.064;0.160;2022-08-21T08:48:10;3.95;;;2.50;;
57720;SDS011;43562;43.064;0.160;2022-08-21T08:50:57;3.10;;;1.95;;
57720;SDS011;43562;43.064;0.160;2022-08-21T08:53:30;2.40;;;1.88;;
57720;SDS011;43562;43.064;0.160;2022-08-21T08:55:57;2.30;;;1.98;;
57720;SDS011;43562;43.064;0.160;2022-08-21T08:58:29;2.70;;;2.03;;
57720;SDS011;43562;43.064;0.160;2022-08-21T09:00:56;2.70;;;1.88;;
57720;SDS011;43562;43.064;0.160;2022-08-21T09:03:23;2.40;;;1.92;;
57720;SDS011;43562;43.064;0.160;2022-08-21T09:05:55;3.10;;;1.58;;
57720;SDS011;43562;43.064;0.160;2022-08-21T09:24:36;1.73;;;1.60;;
57720;SDS011;43562;43.064;0.160;2022-08-21T09:27:09;1.85;;;1.48;;
57720;SDS011;43562;43.064;0.160;2022-08-21T09:29:38;1.77;;;1.48;;
57720;SDS011;43562;43.064;0.160;2022-08-21T09:32:08;3.00;;;1.45;;
57720;SDS011;43562;43.064;0.160;2022-08-21T09:34:35;2.38;;;1.33;;
57720;SDS011;43562;43.064;0.160;2022-08-21T09:37:01;1.58;;;1.35;;
57720;SDS011;43562;43.064;0.160;2022-08-21T09:39:37;1.60;;;1.50;;
57720;SDS011;43562;43.064;0.160;2022-08-21T09:42:06;4.63;;;1.40;;
57720;SDS011;43562;43.064;0.160;2022-08-21T09:44:33;1.80;;;1.60;;
57720;SDS011;43562;43.064;0.160;2022-08-21T09:47:04;3.30;;;1.40;;
57720;SDS011;43562;43.064;0.160;2022-08-21T09:49:32;1.60;;;1.50;;
57720;SDS011;43562;43.064;0.160;2022-08-21T09:51:58;2.00;;;1.70;;
57720;SDS011;43562;43.064;0.160;2022-08-21T09:54:32;1.95;;;1.60;;
57720;SDS011;43562;43.064;0.160;2022-08-21T09:57:01;2.08;;;1.20;;
57720;SDS011;43562;43.064;0.160;2022-08-21T09:59:49;2.13;;;1.30;;
57720;SDS011;43562;43.064;0.160;2022-08-21T10:04:42;2.50;;;1.40;;
57720;SDS011;43562;43.064;0.160;2022-08-21T10:07:15;2.97;;;1.60;;
57720;SDS011;43562;43.064;0.160;2022-08-21T10:09:41;2.50;;;1.60;;
57720;SDS011;43562;43.064;0.160;2022-08-21T10:12:21;3.35;;;1.50;;
57720;SDS011;43562;43.064;0.160;2022-08-21T10:17:27;1.58;;;1.40;;
57720;SDS011;43562;43.064;0.160;2022-08-21T10:20:12;5.53;;;1.45;;
57720;SDS011;43562;43.064;0.160;2022-08-21T10:22:50;1.77;;;1.30;;
57720;SDS011;43562;43.064;0.160;2022-08-21T10:25:32;1.50;;;1.40;;
57720;SDS011;43562;43.064;0.160;2022-08-21T10:28:05;2.55;;;1.20;;
57720;SDS011;43562;43.064;0.160;2022-08-21T10:30:39;1.83;;;1.40;;
57720;SDS011;43562;43.064;0.160;2022-08-21T10:35:41;4.10;;;1.40;;
57720;SDS011;43562;43.064;0.160;2022-08-21T10:41:01;2.60;;;1.60;;
57720;SDS011;43562;43.064;0.160;2022-08-21T10:43:40;1.65;;;1.40;;
57720;SDS011;43562;43.064;0.160;2022-08-21T10:46:34;1.40;;;1.30;;
57720;SDS011;43562;43.064;0.160;2022-08-21T10:49:21;2.00;;;1.40;;
57720;SDS011;43562;43.064;0.160;2022-08-21T10:51:56;2.42;;;1.42;;
57720;SDS011;43562;43.064;0.160;2022-08-21T10:57:16;2.83;;;1.20;;
57720;SDS011;43562;43.064;0.160;2022-08-21T10:59:50;1.15;;;1.05;;
57720;SDS011;43562;43.064;0.160;2022-08-21T11:02:25;1.20;;;1.10;;
57720;SDS011;43562;43.064;0.160;2022-08-21T11:04:55;1.30;;;1.20;;
57720;SDS011;43562;43.064;0.160;2022-08-21T11:07:31;2.10;;;1.20;;
57720;SDS011;43562;43.064;0.160;2022-08-21T11:10:00;1.38;;;1.23;;
57720;SDS011;43562;43.064;0.160;2022-08-21T11:12:34;1.98;;;1.38;;
57720;SDS011;43562;43.064;0.160;2022-08-21T11:17:43;1.77;;;1.13;;
57720;SDS011;43562;43.064;0.160;2022-08-21T11:23:04;2.23;;;1.37;;
57720;SDS011;43562;43.064;0.160;2022-08-21T11:25:36;1.90;;;1.30;;
57720;SDS011;43562;43.064;0.160;2022-08-21T11:28:06;3.78;;;1.50;;
57720;SDS011;43562;43.064;0.160;2022-08-21T11:30:48;2.15;;;1.35;;
57720;SDS011;43562;43.064;0.160;2022-08-21T11:39:20;2.75;;;1.60;;
57720;SDS011;43562;43.064;0.160;2022-08-21T11:41:40;2.53;;;1.63;;
57720;SDS011;43562;43.064;0.160;2022-08-21T11:46:57;2.63;;;1.50;;
57720;SDS011;43562;43.064;0.160;2022-08-21T11:54:24;3.00;;;1.60;;
57720;SDS011;43562;43.064;0.160;2022-08-21T11:56:57;3.45;;;1.70;;
57720;SDS011;43562;43.064;0.160;2022-08-21T11:59:34;2.50;;;1.58;;
57720;SDS011;43562;43.064;0.160;2022-08-21T12:02:02;2.63;;;1.58;;
57720;SDS011;43562;43.064;0.160;2022-08-21T12:04:32;3.63;;;2.00;;
57720;SDS011;43562;43.064;0.160;2022-08-21T12:07:14;4.53;;;1.75;;
57720;SDS011;43562;43.064;0.160;2022-08-21T12:09:51;3.42;;;2.10;;
57720;SDS011;43562;43.064;0.160;2022-08-21T12:14:50;1.65;;;1.45;;
57720;SDS011;43562;43.064;0.160;2022-08-21T12:17:23;2.38;;;1.95;;
57720;SDS011;43562;43.064;0.160;2022-08-21T12:20:00;3.80;;;1.98;;
57720;SDS011;43562;43.064;0.160;2022-08-21T12:22:37;1.70;;;1.60;;
57720;SDS011;43562;43.064;0.160;2022-08-21T12:25:07;4.25;;;1.67;;
57720;SDS011;43562;43.064;0.160;2022-08-21T12:27:46;2.08;;;1.65;;
57720;SDS011;43562;43.064;0.160;2022-08-21T12:32:55;1.88;;;1.75;;
57720;SDS011;43562;43.064;0.160;2022-08-21T12:35:24;4.30;;;1.63;;
57720;SDS011;43562;43.064;0.160;2022-08-21T12:37:59;2.35;;;2.15;;
57720;SDS011;43562;43.064;0.160;2022-08-21T12:40:31;6.25;;;1.80;;
57720;SDS011;43562;43.064;0.160;2022-08-21T12:43:02;3.95;;;1.85;;
57720;SDS011;43562;43.064;0.160;2022-08-21T12:45:33;1.77;;;1.67;;
57720;SDS011;43562;43.064;0.160;2022-08-21T12:48:03;3.55;;;1.65;;
57720;SDS011;43562;43.064;0.160;2022-08-21T12:50:42;2.92;;;1.90;;
57720;SDS011;43562;43.064;0.160;2022-08-21T12:55:38;2.40;;;1.90;;
57720;SDS011;43562;43.064;0.160;2022-08-21T12:58:06;2.70;;;1.88;;
57720;SDS011;43562;43.064;0.160;2022-08-21T13:00:32;1.60;;;1.42;;
57720;SDS011;43562;43.064;0.160;2022-08-21T13:02:58;2.50;;;1.63;;
57720;SDS011;43562;43.064;0.160;2022-08-21T13:05:34;2.40;;;1.80;;
57720;SDS011;43562;43.064;0.160;2022-08-21T13:08:07;4.32;;;1.70;;
57720;SDS011;43562;43.064;0.160;2022-08-21T13:10:34;2.38;;;1.75;;
57720;SDS011;43562;43.064;0.160;2022-08-21T13:13:02;2.53;;;1.80;;
57720;SDS011;43562;43.064;0.160;2022-08-21T13:15:30;2.45;;;1.60;;
57720;SDS011;43562;43.064;0.160;2022-08-21T13:17:57;2.83;;;1.65;;
57720;SDS011;43562;43.064;0.160;2022-08-21T13:20:31;3.35;;;1.55;;
57720;SDS011;43562;43.064;0.160;2022-08-21T13:22:59;1.60;;;1.50;;
57720;SDS011;43562;43.064;0.160;2022-08-21T13:25:26;2.15;;;1.65;;
57720;SDS011;43562;43.064;0.160;2022-08-21T13:27:58;2.25;;;2.03;;
57720;SDS011;43562;43.064;0.160;2022-08-21T13:30:24;4.53;;;1.63;;
57720;SDS011;43562;43.064;0.160;2022-08-21T13:32:51;1.98;;;1.80;;
57720;SDS011;43562;43.064;0.160;2022-08-21T13:35:20;3.25;;;1.70;;
57720;SDS011;43562;43.064;0.160;2022-08-21T13:37:47;2.40;;;2.00;;
57720;SDS011;43562;43.064;0.160;2022-08-21T13:40:14;3.67;;;1.70;;
57720;SDS011;43562;43.064;0.160;2022-08-21T13:42:42;4.22;;;1.85;;
57720;SDS011;43562;43.064;0.160;2022-08-21T13:45:29;1.83;;;1.73;;
57720;SDS011;43562;43.064;0.160;2022-08-21T13:47:56;1.88;;;1.77;;
57720;SDS011;43562;43.064;0.160;2022-08-21T13:50:23;1.85;;;1.73;;
57720;SDS011;43562;43.064;0.160;2022-08-21T13:52:54;2.17;;;1.83;;
57720;SDS011;43562;43.064;0.160;2022-08-21T13:55:24;2.42;;;1.67;;
57720;SDS011;43562;43.064;0.160;2022-08-21T13:58:01;1.77;;;1.67;;
57720;SDS011;43562;43.064;0.160;2022-08-21T14:00:28;2.13;;;1.85;;
57720;SDS011;43562;43.064;0.160;2022-08-21T14:03:00;4.22;;;1.80;;
57720;SDS011;43562;43.064;0.160;2022-08-21T14:05:27;2.53;;;2.22;;
57720;SDS011;43562;43.064;0.160;2022-08-21T14:08:03;3.60;;;1.83;;
57720;SDS011;43562;43.064;0.160;2022-08-21T14:10:30;8.15;;;2.50;;
57720;SDS011;43562;43.064;0.160;2022-08-21T14:13:03;5.03;;;2.50;;
57720;SDS011;43562;43.064;0.160;2022-08-21T14:15:30;3.80;;;2.10;;
57720;SDS011;43562;43.064;0.160;2022-08-21T14:18:16;3.47;;;2.03;;
57720;SDS011;43562;43.064;0.160;2022-08-21T14:20:43;1.90;;;1.70;;
57720;SDS011;43562;43.064;0.160;2022-08-21T14:23:10;3.20;;;1.90;;
57720;SDS011;43562;43.064;0.160;2022-08-21T14:25:42;3.70;;;1.92;;
57720;SDS011;43562;43.064;0.160;2022-08-21T14:30:36;3.72;;;1.92;;
57720;SDS011;43562;43.064;0.160;2022-08-21T14:33:03;2.05;;;1.85;;
57720;SDS011;43562;43.064;0.160;2022-08-21T14:35:29;3.38;;;1.90;;
57720;SDS011;43562;43.064;0.160;2022-08-21T14:37:56;3.10;;;1.98;;
57720;SDS011;43562;43.064;0.160;2022-08-21T14:40:23;2.78;;;1.95;;
57720;SDS011;43562;43.064;0.160;2022-08-21T14:42:50;4.97;;;2.40;;
57720;SDS011;43562;43.064;0.160;2022-08-21T14:45:17;3.63;;;2.33;;
57720;SDS011;43562;43.064;0.160;2022-08-21T14:47:44;2.78;;;1.90;;
57720;SDS011;43562;43.064;0.160;2022-08-21T14:50:11;2.10;;;1.90;;
57720;SDS011;43562;43.064;0.160;2022-08-21T14:52:38;1.80;;;1.63;;
57720;SDS011;43562;43.064;0.160;2022-08-21T14:55:04;4.70;;;1.90;;
57720;SDS011;43562;43.064;0.160;2022-08-21T14:57:31;7.53;;;2.17;;
57720;SDS011;43562;43.064;0.160;2022-08-21T14:59:57;2.42;;;1.98;;
57720;SDS011;43562;43.064;0.160;2022-08-21T15:02:24;2.50;;;1.85;;
57720;SDS011;43562;43.064;0.160;2022-08-21T15:04:51;3.03;;;2.03;;
57720;SDS011;43562;43.064;0.160;2022-08-21T15:07:17;4.65;;;2.47;;
57720;SDS011;43562;43.064;0.160;2022-08-21T15:09:43;5.78;;;2.60;;
57720;SDS011;43562;43.064;0.160;2022-08-21T15:12:09;5.22;;;2.60;;
57720;SDS011;43562;43.064;0.160;2022-08-21T15:14:38;4.50;;;2.50;;
57720;SDS011;43562;43.064;0.160;2022-08-21T15:17:08;3.00;;;2.15;;
57720;SDS011;43562;43.064;0.160;2022-08-21T15:19:35;2.33;;;2.13;;
57720;SDS011;43562;43.064;0.160;2022-08-21T15:22:01;3.17;;;2.00;;
57720;SDS011;43562;43.064;0.160;2022-08-21T15:24:27;3.65;;;2.30;;
57720;SDS011;43562;43.064;0.160;2022-08-21T15:26:53;4.25;;;2.13;;
57720;SDS011;43562;43.064;0.160;2022-08-21T15:29:20;2.60;;;2.00;;
57720;SDS011;43562;43.064;0.160;2022-08-21T15:32:28;3.28;;;2.40;;
57720;SDS011;43562;43.064;0.160;2022-08-21T15:34:35;3.72;;;2.10;;
57720;SDS011;43562;43.064;0.160;2022-08-21T15:37:01;2.88;;;1.95;;
57720;SDS011;43562;43.064;0.160;2022-08-21T15:39:30;3.30;;;2.45;;
57720;SDS011;43562;43.064;0.160;2022-08-21T15:41:57;2.72;;;2.05;;
57720;SDS011;43562;43.064;0.160;2022-08-21T15:44:23;3.28;;;2.08;;
57720;SDS011;43562;43.064;0.160;2022-08-21T15:46:50;4.10;;;2.20;;
57720;SDS011;43562;43.064;0.160;2022-08-21T15:49:16;2.50;;;2.30;;
57720;SDS011;43562;43.064;0.160;2022-08-21T15:51:42;3.55;;;2.30;;
57720;SDS011;43562;43.064;0.160;2022-08-21T15:54:09;3.50;;;2.40;;
57720;SDS011;43562;43.064;0.160;2022-08-21T15:56:36;4.18;;;2.95;;
57720;SDS011;43562;43.064;0.160;2022-08-21T15:59:04;2.97;;;2.78;;
57720;SDS011;43562;43.064;0.160;2022-08-21T16:01:30;4.13;;;2.40;;